Flugplatz Eichstätt (EDPE)

Hier findest Du alle Informationen zum Flugplatz Eichstätt (EDPE).

Informationen für Piloten zum Flugplatz Eichstätt

Hier findest Du alle relevanten Informationen, die Du als Pilot benötigst, um Eichstätt anzufliegen.

Flugplatz: Eichstätt ICAO-Code: EDPE
Frequenz Turm: 123,000 Mhz GAFOR Gebiet: 63
Frequenz Ground: 123,000 Mhz Mogas: ja
Platzrunde: S 2500 ft Landegebühr: -
Platzhöhe: - Sunrise: 05:58 Uhr UTC
Pisten: 11/29 - 526 m x 35 m, GRAS Sunset: 16:56 Uhr UTC

Mitglieder, die in Eichstätt fliegen

Flugwetter am Flugplatz Eichstätt

Die METAR Information stammen aus EDMA (53.45 km entfernt).

METAR Code:
2021/02/15 17:20
EDMA 151720Z VRB02KT CAVOK M00/M04 Q1028

Flugschulen am Flugplatz Eichstätt

Am Flugplatz Eichstätt gibt es leider keine Flugschule.

Benachbarte Flugplätze und Flugschulen

Es gibt 18 weitere Flugplätze in einem Umkreis von 50 km um den Flugplatz Eichstätt.

Jetzt anmelden

Passwort vergessen

Umfrage Archiv

Seid Ihr aufgrund von Corona im Jahr 2020 mehr oder weniger geflogen als im Jahr zuvor?

weniger
51.4 %
gleich viel
29.7 %
mehr
18.9 %
Stimmen: 111 | Diskussion
Anzeige: Roland Aircraft
Statistik Alle Mitglieder

Aktuell sind 32 Besucher online.

Anzeige: VFR Sprechfunk Simulator


Anzeige: Pocket FMS